createdAt,value
2022-08-30T00:01:42.355Z,15.72
2022-08-30T00:04:27.793Z,15.58
2022-08-30T00:07:13.269Z,15.30
2022-08-30T00:09:58.755Z,15.28
2022-08-30T00:12:43.819Z,15.08
2022-08-30T00:15:30.123Z,14.91
2022-08-30T00:18:17.975Z,14.98
2022-08-30T00:21:04.087Z,14.83
2022-08-30T00:23:49.365Z,14.71
2022-08-30T00:26:34.526Z,14.68
2022-08-30T00:29:19.893Z,14.72
2022-08-30T00:32:05.576Z,14.71
2022-08-30T00:34:51.834Z,14.83
2022-08-30T00:37:37.346Z,14.99
2022-08-30T00:40:27.252Z,15.12
2022-08-30T00:43:38.998Z,15.01
2022-08-30T00:46:24.553Z,15.04
2022-08-30T00:49:12.227Z,15.11
2022-08-30T00:51:57.796Z,15.15
2022-08-30T00:54:45.319Z,15.26
2022-08-30T00:57:31.472Z,15.35
2022-08-30T01:00:17.228Z,15.38
2022-08-30T01:03:03.713Z,15.45
2022-08-30T01:05:50.397Z,15.46
2022-08-30T01:08:35.869Z,15.57
2022-08-30T01:11:23.893Z,15.57
2022-08-30T01:14:11.539Z,15.56
2022-08-30T01:16:57.714Z,15.49
2022-08-30T01:20:04.625Z,15.48
2022-08-30T01:22:50.092Z,15.50
2022-08-30T01:25:37.243Z,15.50
2022-08-30T01:28:24.040Z,15.47
2022-08-30T01:31:09.604Z,15.45
2022-08-30T01:33:54.654Z,15.53
2022-08-30T01:36:44.731Z,15.54
2022-08-30T01:39:30.573Z,15.56
2022-08-30T01:42:17.252Z,15.47
2022-08-30T01:45:02.381Z,15.47
2022-08-30T01:47:47.627Z,15.39
2022-08-30T01:50:33.109Z,15.30
2022-08-30T01:53:18.692Z,15.31
2022-08-30T01:56:05.482Z,15.31
2022-08-30T01:58:50.919Z,15.29
2022-08-30T02:01:37.024Z,15.20
2022-08-30T02:04:22.722Z,15.25
2022-08-30T02:07:08.465Z,15.14
2022-08-30T02:09:53.763Z,15.18
2022-08-30T02:12:38.993Z,15.20
2022-08-30T02:15:24.402Z,15.24
2022-08-30T02:18:10.653Z,15.36
2022-08-30T02:20:56.109Z,15.38
2022-08-30T02:23:42.017Z,15.42
2022-08-30T02:26:27.280Z,15.42
2022-08-30T02:29:12.776Z,15.42
2022-08-30T02:31:58.169Z,15.53
2022-08-30T02:34:44.571Z,15.64
2022-08-30T02:37:30.040Z,15.56
2022-08-30T02:40:15.565Z,15.61
2022-08-30T02:43:01.146Z,15.58
2022-08-30T02:45:46.235Z,15.48
2022-08-30T02:48:31.645Z,15.54
2022-08-30T02:51:17.565Z,15.56
2022-08-30T02:54:02.862Z,15.51
2022-08-30T02:56:49.087Z,15.71
2022-08-30T02:59:36.923Z,15.77
2022-08-30T03:02:22.456Z,15.68
2022-08-30T03:05:09.105Z,15.84
2022-08-30T03:07:54.470Z,15.74
2022-08-30T03:10:39.694Z,15.82
2022-08-30T03:13:25.342Z,15.89
2022-08-30T03:16:10.910Z,15.77
2022-08-30T03:18:56.433Z,15.84
2022-08-30T03:21:41.523Z,15.85
2022-08-30T03:24:27.013Z,15.90
2022-08-30T03:27:12.893Z,16.02
2022-08-30T03:29:58.378Z,15.98
2022-08-30T03:32:44.056Z,16.04
2022-08-30T03:35:33.253Z,15.99
2022-08-30T03:38:18.375Z,16.01
2022-08-30T03:41:05.550Z,15.99
2022-08-30T03:43:51.128Z,15.98
2022-08-30T03:46:37.664Z,16.13
2022-08-30T03:49:24.397Z,16.09
2022-08-30T03:52:09.574Z,15.93
2022-08-30T03:54:55.092Z,16.06
2022-08-30T03:57:43.424Z,16.10
2022-08-30T04:00:29.164Z,16.03
2022-08-30T04:03:14.635Z,16.00
2022-08-30T04:06:00.885Z,16.00
2022-08-30T04:08:46.236Z,15.98
2022-08-30T04:11:32.032Z,16.00
2022-08-30T04:14:17.984Z,15.95
2022-08-30T04:17:03.403Z,16.03
2022-08-30T04:19:48.952Z,16.14
2022-08-30T04:22:34.055Z,16.13
2022-08-30T04:25:19.601Z,16.13
2022-08-30T04:28:05.516Z,16.11
2022-08-30T04:30:50.970Z,16.04
2022-08-30T04:33:36.413Z,16.06
2022-08-30T04:36:23.328Z,16.13
2022-08-30T04:39:08.708Z,15.99
2022-08-30T04:41:54.145Z,16.20
2022-08-30T04:44:39.324Z,16.13
2022-08-30T04:47:24.475Z,16.19
2022-08-30T04:50:10.846Z,16.23
2022-08-30T04:52:56.259Z,16.03
2022-08-30T04:55:41.704Z,16.13
2022-08-30T04:58:26.932Z,16.11
2022-08-30T05:01:20.428Z,16.16
2022-08-30T05:04:09.058Z,16.14
2022-08-30T05:06:54.481Z,16.27
2022-08-30T05:09:39.783Z,16.32
2022-08-30T05:12:25.504Z,16.32
2022-08-30T05:15:11.618Z,16.35
2022-08-30T05:17:57.449Z,16.38
2022-08-30T05:20:43.131Z,16.44
2022-08-30T05:23:28.680Z,16.37
2022-08-30T05:26:16.522Z,16.47
2022-08-30T05:29:01.579Z,16.55
2022-08-30T05:31:46.696Z,16.53
2022-08-30T05:34:32.045Z,16.59
2022-08-30T05:37:17.408Z,16.75
2022-08-30T05:40:03.922Z,17.11
2022-08-30T05:42:56.230Z,17.35
2022-08-30T05:45:42.135Z,17.54
2022-08-30T05:48:28.120Z,17.49
2022-08-30T05:51:15.417Z,17.64
2022-08-30T05:54:01.162Z,17.67
2022-08-30T05:56:49.721Z,17.59
2022-08-30T05:59:34.864Z,17.53
2022-08-30T06:02:20.440Z,17.68
2022-08-30T06:05:06.026Z,17.76
2022-08-30T06:07:51.183Z,17.88
2022-08-30T06:10:36.275Z,18.09
2022-08-30T06:13:22.347Z,18.28
2022-08-30T06:16:07.920Z,18.36
2022-08-30T06:18:53.733Z,18.51
2022-08-30T06:21:39.788Z,18.64
2022-08-30T06:24:41.173Z,18.58
2022-08-30T06:27:31.123Z,18.72
2022-08-30T06:30:16.762Z,18.95
2022-08-30T06:33:04.341Z,19.10
2022-08-30T06:35:58.496Z,19.17
2022-08-30T06:38:45.239Z,19.00
2022-08-30T06:41:31.872Z,18.89
2022-08-30T06:44:17.606Z,19.18
2022-08-30T06:47:03.063Z,19.47
2022-08-30T06:49:48.473Z,19.65
2022-08-30T06:52:34.095Z,19.46
2022-08-30T06:55:20.098Z,19.72
2022-08-30T06:58:05.447Z,19.71
2022-08-30T07:00:50.817Z,20.35
2022-08-30T07:03:36.030Z,19.87
2022-08-30T07:06:21.411Z,20.25
2022-08-30T07:09:06.727Z,20.24
2022-08-30T07:11:52.284Z,20.21
2022-08-30T07:14:38.116Z,20.41
2022-08-30T07:17:41.999Z,20.85
2022-08-30T07:20:27.408Z,21.32
2022-08-30T07:23:13.701Z,21.52
2022-08-30T07:25:58.771Z,21.29
2022-08-30T07:28:44.668Z,21.44
2022-08-30T07:31:30.251Z,21.28
2022-08-30T07:34:15.422Z,20.89
2022-08-30T07:37:00.826Z,21.19
2022-08-30T07:39:47.976Z,21.42
2022-08-30T07:42:33.405Z,22.08
2022-08-30T07:45:18.873Z,22.28
2022-08-30T07:48:05.561Z,22.42
2022-08-30T07:50:53.711Z,22.11
2022-08-30T07:53:42.587Z,21.86
2022-08-30T07:56:28.221Z,22.18
2022-08-30T07:59:13.579Z,21.74
2022-08-30T08:01:58.957Z,21.97
2022-08-30T08:04:44.621Z,22.13
2022-08-30T08:07:30.290Z,21.92
2022-08-30T08:10:16.094Z,21.95
2022-08-30T08:13:01.422Z,22.39
2022-08-30T08:15:46.680Z,22.30
2022-08-30T08:18:32.126Z,22.23
2022-08-30T08:21:17.799Z,22.16
2022-08-30T08:24:03.344Z,21.76
2022-08-30T08:26:48.644Z,21.02
2022-08-30T08:29:33.900Z,21.15
2022-08-30T08:32:19.431Z,21.58
2022-08-30T08:35:05.225Z,21.96
2022-08-30T08:37:50.350Z,21.38
2022-08-30T08:40:38.405Z,21.30
2022-08-30T08:43:25.662Z,20.78
2022-08-30T08:46:13.928Z,20.58
2022-08-30T08:49:02.481Z,21.39
2022-08-30T08:52:06.846Z,22.45
2022-08-30T08:54:52.296Z,22.43
2022-08-30T08:57:37.925Z,23.65
2022-08-30T09:00:23.090Z,25.16
2022-08-30T09:03:12.680Z,25.89
2022-08-30T09:06:11.651Z,26.86
2022-08-30T09:08:57.010Z,27.57
2022-08-30T09:11:44.333Z,28.10
2022-08-30T09:14:33.627Z,27.68
2022-08-30T09:17:20.650Z,26.51
2022-08-30T09:20:06.309Z,25.50
2022-08-30T09:22:51.567Z,25.79
2022-08-30T09:25:49.861Z,27.06
2022-08-30T09:28:44.162Z,28.53
2022-08-30T09:31:33.953Z,29.19
2022-08-30T09:34:20.847Z,29.20
2022-08-30T09:37:22.346Z,28.55
2022-08-30T09:40:10.969Z,27.39
2022-08-30T09:43:05.491Z,28.25
2022-08-30T09:46:00.209Z,28.26
2022-08-30T09:48:46.124Z,27.25
2022-08-30T09:51:45.539Z,26.43
2022-08-30T09:55:09.269Z,27.04
2022-08-30T09:58:18.462Z,26.69
2022-08-30T10:01:10.637Z,26.22
2022-08-30T10:04:00.223Z,26.22
2022-08-30T10:06:58.589Z,26.02
2022-08-30T10:09:52.191Z,25.81
2022-08-30T10:12:43.429Z,25.80
2022-08-30T10:15:50.948Z,25.43
2022-08-30T10:18:43.072Z,24.95
2022-08-30T10:21:35.563Z,24.93
2022-08-30T10:24:24.183Z,24.60
2022-08-30T10:27:12.854Z,26.34
2022-08-30T10:30:06.414Z,29.11
2022-08-30T10:33:01.540Z,32.31
2022-08-30T10:35:52.512Z,34.39
2022-08-30T10:38:39.585Z,32.78
2022-08-30T10:41:27.795Z,31.33
2022-08-30T10:44:19.970Z,29.04
2022-08-30T10:47:23.982Z,27.28
2022-08-30T10:50:30.377Z,26.16
2022-08-30T10:53:20.203Z,25.50
2022-08-30T10:56:07.812Z,23.73
2022-08-30T10:58:54.451Z,23.28
2022-08-30T11:01:58.564Z,23.06
2022-08-30T11:04:46.388Z,22.40
2022-08-30T11:07:31.344Z,22.15
2022-08-30T11:10:19.451Z,21.82
2022-08-30T11:13:09.560Z,21.92
2022-08-30T11:16:01.298Z,21.89
2022-08-30T11:18:52.323Z,21.77
2022-08-30T11:21:38.983Z,21.87
2022-08-30T11:24:25.155Z,22.19
2022-08-30T11:27:32.521Z,21.89
2022-08-30T11:30:23.945Z,21.37
2022-08-30T11:33:12.912Z,21.73
2022-08-30T11:35:58.149Z,21.96
2022-08-30T11:38:43.588Z,21.72
2022-08-30T11:41:31.005Z,21.43
2022-08-30T11:44:22.041Z,21.39
2022-08-30T11:47:25.637Z,22.12
2022-08-30T11:50:17.827Z,22.42
2022-08-30T11:53:18.943Z,22.78
2022-08-30T11:56:06.703Z,23.22
2022-08-30T11:58:58.125Z,24.80
2022-08-30T12:01:50.350Z,25.32
2022-08-30T12:04:44.985Z,25.14
2022-08-30T12:07:52.886Z,24.54
2022-08-30T12:10:41.133Z,23.93
2022-08-30T12:13:35.276Z,23.58
2022-08-30T12:16:35.113Z,23.41
2022-08-30T12:19:21.097Z,23.40
2022-08-30T12:22:07.209Z,23.23
2022-08-30T12:24:53.600Z,23.67
2022-08-30T12:27:39.385Z,23.21
2022-08-30T12:30:27.936Z,23.36
2022-08-30T12:33:14.456Z,23.16
2022-08-30T12:36:01.302Z,23.42
2022-08-30T12:38:48.862Z,24.03
2022-08-30T12:41:34.474Z,23.98
2022-08-30T12:44:29.502Z,25.20
2022-08-30T12:47:17.986Z,27.00
2022-08-30T12:50:04.512Z,26.10
2022-08-30T12:53:01.620Z,26.37
2022-08-30T12:55:54.419Z,27.50
2022-08-30T12:58:47.553Z,30.22
2022-08-30T13:01:37.013Z,32.09
2022-08-30T13:04:26.846Z,31.12
2022-08-30T13:07:13.192Z,30.11
2022-08-30T13:10:05.588Z,30.55
2022-08-30T13:13:01.243Z,28.34
2022-08-30T13:15:48.925Z,28.29
2022-08-30T13:18:34.057Z,28.47
2022-08-30T13:21:42.243Z,33.33
2022-08-30T13:24:27.889Z,32.89
2022-08-30T13:27:13.461Z,30.95
2022-08-30T13:30:06.610Z,29.71
2022-08-30T13:32:52.475Z,30.58
2022-08-30T13:35:38.133Z,31.94
2022-08-30T13:38:24.490Z,32.12
2022-08-30T13:41:10.800Z,32.16
2022-08-30T13:44:13.222Z,31.57
2022-08-30T13:47:32.134Z,32.73
2022-08-30T13:50:05.381Z,36.84
2022-08-30T13:52:50.703Z,33.43
2022-08-30T13:55:39.238Z,30.56
2022-08-30T13:58:26.138Z,28.85
2022-08-30T14:01:13.132Z,28.04
2022-08-30T14:04:15.515Z,27.84
2022-08-30T14:07:20.175Z,27.82
2022-08-30T14:13:12.019Z,27.17
2022-08-30T14:19:06.440Z,26.95
2022-08-30T14:21:52.879Z,26.64
2022-08-30T14:24:38.001Z,26.80
2022-08-30T14:27:24.685Z,25.94
2022-08-30T14:30:12.457Z,26.39
2022-08-30T14:32:57.833Z,26.53
2022-08-30T14:35:43.089Z,26.19
2022-08-30T14:38:28.307Z,26.36
2022-08-30T14:41:13.729Z,25.91
2022-08-30T14:43:59.104Z,26.85
2022-08-30T14:46:44.379Z,27.26
2022-08-30T14:49:29.801Z,28.08
2022-08-30T14:52:15.621Z,29.23
2022-08-30T14:55:08.596Z,29.64
2022-08-30T14:57:54.760Z,32.33
2022-08-30T15:00:40.184Z,31.74
2022-08-30T15:03:25.741Z,29.11
2022-08-30T15:06:11.354Z,29.83
2022-08-30T15:08:56.786Z,31.28
2022-08-30T15:11:44.359Z,32.96
2022-08-30T15:14:32.111Z,33.89
2022-08-30T15:17:19.204Z,34.87
2022-08-30T15:20:08.582Z,32.35
2022-08-30T15:22:56.265Z,31.48
2022-08-30T15:25:42.332Z,32.12
2022-08-30T15:28:27.572Z,29.49
2022-08-30T15:31:13.034Z,28.09
2022-08-30T15:33:58.534Z,27.40
2022-08-30T15:36:44.440Z,29.16
2022-08-30T15:39:29.713Z,31.11
2022-08-30T15:42:19.445Z,30.64
2022-08-30T15:45:05.456Z,27.37
2022-08-30T15:47:51.784Z,26.26
2022-08-30T15:50:37.213Z,27.58
2022-08-30T15:53:22.614Z,26.81
2022-08-30T15:56:08.379Z,25.47
2022-08-30T15:58:53.628Z,25.21
2022-08-30T16:01:38.858Z,25.51
2022-08-30T16:04:24.167Z,25.31
2022-08-30T16:07:11.261Z,25.19
2022-08-30T16:09:56.679Z,24.75
2022-08-30T16:12:42.329Z,23.93
2022-08-30T16:15:28.776Z,23.61
2022-08-30T16:18:14.611Z,23.65
2022-08-30T16:21:10.945Z,23.37
2022-08-30T16:23:57.375Z,22.92
2022-08-30T16:26:43.299Z,22.60
2022-08-30T16:29:28.609Z,22.70
2022-08-30T16:32:14.897Z,22.63
2022-08-30T16:35:00.682Z,22.19
2022-08-30T16:37:46.235Z,21.99
2022-08-30T16:40:31.755Z,21.99
2022-08-30T16:43:17.552Z,21.93
2022-08-30T16:46:04.556Z,21.87
2022-08-30T16:48:52.112Z,21.54
2022-08-30T16:51:37.551Z,21.61
2022-08-30T16:54:23.120Z,21.64
2022-08-30T16:57:08.393Z,21.41
2022-08-30T16:59:54.929Z,21.29
2022-08-30T17:02:44.417Z,21.32
2022-08-30T17:05:47.198Z,21.14
2022-08-30T17:08:35.180Z,21.05
2022-08-30T17:11:21.162Z,20.87
2022-08-30T17:14:07.668Z,20.71
2022-08-30T17:16:53.659Z,20.47
2022-08-30T17:19:42.195Z,20.36
2022-08-30T17:22:28.220Z,20.38
2022-08-30T17:25:14.264Z,20.28
2022-08-30T17:28:00.840Z,20.21
2022-08-30T17:30:46.010Z,20.07
2022-08-30T17:33:32.337Z,20.01
2022-08-30T17:36:17.845Z,19.97
2022-08-30T17:39:11.206Z,19.90
2022-08-30T17:41:56.934Z,19.84
2022-08-30T17:44:42.450Z,19.85
2022-08-30T17:47:28.184Z,19.86
2022-08-30T17:50:14.678Z,19.56
2022-08-30T17:53:00.058Z,19.53
2022-08-30T17:55:48.795Z,19.50
2022-08-30T17:58:34.703Z,19.33
2022-08-30T18:01:20.854Z,19.37
2022-08-30T18:04:06.647Z,19.25
2022-08-30T18:06:52.239Z,19.19
2022-08-30T18:09:38.061Z,19.14
2022-08-30T18:12:23.664Z,19.06
2022-08-30T18:15:12.776Z,19.00
2022-08-30T18:18:01.156Z,18.95
2022-08-30T18:20:49.828Z,18.84
2022-08-30T18:23:35.372Z,18.83
2022-08-30T18:26:24.361Z,18.69
2022-08-30T18:29:10.027Z,18.67
2022-08-30T18:31:55.226Z,18.61
2022-08-30T18:34:42.402Z,18.47
2022-08-30T18:37:28.056Z,18.49
2022-08-30T18:40:18.635Z,18.31
2022-08-30T18:43:07.809Z,18.28
2022-08-30T18:45:52.987Z,18.23
2022-08-30T18:48:38.149Z,18.12
2022-08-30T18:51:23.457Z,18.03
2022-08-30T18:54:08.937Z,18.04
2022-08-30T18:56:54.993Z,18.03
2022-08-30T18:59:41.923Z,17.90
2022-08-30T19:02:27.968Z,17.88
2022-08-30T19:05:16.031Z,17.79
2022-08-30T19:08:02.636Z,17.73
2022-08-30T19:10:48.157Z,17.65
2022-08-30T19:13:33.790Z,17.54
2022-08-30T19:16:20.275Z,17.60
2022-08-30T19:19:05.581Z,17.52
2022-08-30T19:21:51.804Z,17.49
2022-08-30T19:24:37.343Z,17.51
2022-08-30T19:27:37.542Z,17.32
2022-08-30T19:30:29.407Z,17.32
2022-08-30T19:33:17.182Z,17.22
2022-08-30T19:36:03.234Z,17.15
2022-08-30T19:38:49.767Z,17.14
2022-08-30T19:41:35.195Z,17.14
2022-08-30T19:44:20.598Z,17.03
2022-08-30T19:47:06.447Z,16.98
2022-08-30T19:49:51.521Z,16.97
2022-08-30T19:52:37.511Z,16.84
2022-08-30T19:55:28.231Z,16.85
2022-08-30T19:58:15.691Z,16.76
2022-08-30T20:01:11.771Z,16.68
2022-08-30T20:04:01.678Z,16.61
2022-08-30T20:06:47.856Z,16.52
2022-08-30T20:09:33.426Z,16.36
2022-08-30T20:12:19.265Z,16.43
2022-08-30T20:15:09.302Z,16.37
2022-08-30T20:18:14.754Z,16.35
2022-08-30T20:21:00.312Z,16.31
2022-08-30T20:23:47.421Z,16.33
2022-08-30T20:26:34.360Z,16.28
2022-08-30T20:29:20.284Z,16.07
2022-08-30T20:32:05.366Z,15.99
2022-08-30T20:34:53.136Z,15.98
2022-08-30T20:37:38.631Z,15.87
2022-08-30T20:40:23.688Z,15.90
2022-08-30T20:43:09.119Z,15.81
2022-08-30T20:45:55.285Z,15.80
2022-08-30T20:48:40.794Z,15.75
2022-08-30T20:51:27.475Z,15.69
2022-08-30T20:54:13.212Z,15.56
2022-08-30T20:56:58.542Z,15.55
2022-08-30T20:59:44.017Z,15.40
2022-08-30T21:02:29.383Z,15.46
2022-08-30T21:05:15.590Z,15.39
2022-08-30T21:08:00.809Z,15.35
2022-08-30T21:10:51.511Z,15.34
2022-08-30T21:13:37.115Z,15.27
2022-08-30T21:16:22.359Z,15.19
2022-08-30T21:19:07.647Z,15.22
2022-08-30T21:21:53.018Z,15.22
2022-08-30T21:24:38.241Z,15.17
2022-08-30T21:27:23.638Z,15.22
2022-08-30T21:30:09.612Z,15.11
2022-08-30T21:32:55.149Z,15.14
2022-08-30T21:36:03.666Z,15.06
2022-08-30T21:38:49.430Z,15.05
2022-08-30T21:41:35.664Z,14.97
2022-08-30T21:44:22.553Z,14.91
2022-08-30T21:47:07.788Z,14.91
2022-08-30T21:49:53.375Z,14.90
2022-08-30T21:52:38.654Z,14.89
2022-08-30T21:55:24.208Z,14.88
2022-08-30T21:58:09.872Z,14.81
2022-08-30T22:00:55.050Z,14.82
2022-08-30T22:03:42.569Z,14.77
2022-08-30T22:06:31.116Z,14.77
2022-08-30T22:09:18.828Z,14.68
2022-08-30T22:12:05.056Z,14.72
2022-08-30T22:14:52.170Z,14.66
2022-08-30T22:17:37.381Z,14.62
2022-08-30T22:20:22.775Z,14.67
2022-08-30T22:23:10.088Z,14.63
2022-08-30T22:25:56.169Z,14.60
2022-08-30T22:28:41.724Z,14.58
2022-08-30T22:31:27.226Z,14.53
2022-08-30T22:34:12.806Z,14.51
2022-08-30T22:36:58.662Z,14.52
2022-08-30T22:39:44.102Z,14.46
2022-08-30T22:42:29.501Z,14.31
2022-08-30T22:45:14.958Z,14.31
2022-08-30T22:48:00.399Z,14.25
2022-08-30T22:50:45.543Z,14.29
2022-08-30T22:53:30.901Z,14.18
2022-08-30T22:56:20.366Z,14.15
2022-08-30T22:59:05.996Z,14.17
2022-08-30T23:01:51.491Z,14.15
2022-08-30T23:04:37.463Z,14.08
2022-08-30T23:07:22.712Z,14.07
2022-08-30T23:10:09.033Z,14.01
2022-08-30T23:12:55.283Z,13.94
2022-08-30T23:15:40.321Z,13.90
2022-08-30T23:18:25.954Z,13.86
2022-08-30T23:21:17.813Z,13.88
2022-08-30T23:24:22.238Z,13.99
2022-08-30T23:27:26.240Z,13.88
2022-08-30T23:30:30.934Z,13.83
2022-08-30T23:33:34.978Z,13.71
2022-08-30T23:36:38.753Z,13.71
2022-08-30T23:39:42.767Z,13.65
2022-08-30T23:42:46.851Z,13.72
2022-08-30T23:45:50.957Z,13.64
2022-08-30T23:48:54.835Z,13.63
2022-08-30T23:51:58.737Z,13.58
2022-08-30T23:55:02.712Z,13.62
2022-08-30T23:58:06.841Z,13.53
